Airfield :
LOGIN :

Register | Disclaimer

   EN    FR    IT 

 










Legend :    VFR   Marginal VFR   IFR   Intensive IFR   Very Intensive IFR
Visi :
Ceiling :
>= 8 km
>= 3000ft
5 to 8 km
1000 to 3000 ft
1500m to 5 km
500 to 1000 ft
800 to 1500m
200 to 500 ft
< 800m
< 200 ft
Symbols :   Thunderstorms  Fog  Heavy snow  Heavy precipitations  Wind > 20 kt
SIGMETs :     Misc.  Thunderstorms  Icing  Turbulence  Mountain Waves  Volcanic Ashes






- Airport Elevation : 236 ft
- IATA code : MMX


ESMS - Malmö Sturup

CURRENT METAR :
  • 180750Z 05004KT 010V090 CAVOK 11/01 Q1023

EXPIRED METARs :
  • 180720Z 07006KT CAVOK 10/01 Q1023
  • 180650Z 06008KT CAVOK 09/M00 Q1023
  • 180620Z 06007KT CAVOK 08/M00 Q1023
  • 180550Z 04005KT CAVOK 07/M01 Q1023
  • 180520Z 07003KT 030V100 CAVOK 06/M01 Q1023

TAF TAF ESMS
Valid from the 18 at 06:00 until the 19 at 06:00 UTC


180510Z 1806/1906 06010KT CAVOK



MET'MAP, your aeronautical weather chart ! - Copyright ORBIFLY December 2007 - Disclaimer

ORBIFLY MET'MAP TEAM :

Programming & Development : Alexandra Zaïnal
Concept & original design : Baudouin d'Aumeries
Assistance for programming : Marc-Olivier Méhu
Technical & hardware support : Manuel Goepfert

Contact : metmap@orbifly.com




SOURCES & CREDITS :

   NOAA